Time,TemperatureF,DewpointF,PressureIn,WindDirection,WindDirectionDegrees,WindSpeedMPH,WindSpeedGustMPH,Humidity,HourlyPrecipIn,Conditions,Clouds,dailyrainin,SolarRadiationWatts/m^2,SoftwareType,DateUTC
2013-05-10 00:00:00,42.2,29.7,30.09,NNE,22,5.0,12.0,61,0.00,,---,0.00,0.00,VWS V14.01,2013-05-10 05:00:00,
2013-05-10 00:05:00,42.1,30.0,30.09,NNW,338,2.0,5.0,62,0.00,,---,0.00,0.00,VWS V14.01,2013-05-10 05:05:00,
2013-05-10 00:10:00,41.9,29.9,30.09,North,0,4.0,9.0,62,0.00,,---,0.00,0.00,VWS V14.01,2013-05-10 05:10:00,
2013-05-10 00:15:00,41.8,30.1,30.10,North,0,3.0,9.0,63,0.00,,---,0.00,0.00,VWS V14.01,2013-05-10 05:15:00,
2013-05-10 00:20:00,41.7,30.0,30.09,North,0,3.0,6.0,63,0.00,,---,0.00,0.00,VWS V14.01,2013-05-10 05:20:00,
2013-05-10 00:25:00,41.5,30.2,30.10,NNW,338,3.0,11.0,64,0.00,,---,0.00,0.00,VWS V14.01,2013-05-10 05:25:00,
2013-05-10 00:30:00,41.3,30.1,30.10,NNE,22,3.0,10.0,64,0.00,,---,0.00,0.00,VWS V14.01,2013-05-10 05:30:00,
2013-05-10 00:35:00,41.1,30.2,30.10,NNW,338,2.0,6.0,65,0.00,,---,0.00,0.00,VWS V14.01,2013-05-10 05:35:00,
2013-05-10 00:40:00,40.9,30.1,30.10,North,0,3.0,7.0,65,0.00,,---,0.00,0.00,VWS V14.01,2013-05-10 05:40:00,
2013-05-10 00:45:00,40.7,29.9,30.10,North,0,3.0,7.0,65,0.00,,---,0.00,0.00,VWS V14.01,2013-05-10 05:45:00,
2013-05-10 00:50:00,40.7,30.2,30.10,North,0,3.0,8.0,66,0.00,,---,0.00,0.00,VWS V14.01,2013-05-10 05:50:00,
2013-05-10 00:55:00,40.8,30.0,30.10,North,0,4.0,10.0,65,0.00,,---,0.00,0.00,VWS V14.01,2013-05-10 05:55:00,
2013-05-10 01:00:00,40.9,30.1,30.10,North,0,3.0,8.0,65,0.00,,---,0.00,0.00,VWS V14.01,2013-05-10 06:00:00,
2013-05-10 01:05:00,41.1,30.2,30.10,NNW,338,2.0,5.0,65,0.00,,---,0.00,0.00,VWS V14.01,2013-05-10 06:05:00,
2013-05-10 01:10:00,41.1,30.2,30.10,NNW,338,3.0,7.0,65,0.00,,---,0.00,0.00,VWS V14.01,2013-05-10 06:10:00,
2013-05-10 01:15:00,41.3,30.1,30.10,NNE,22,3.0,7.0,64,0.00,,---,0.00,0.00,VWS V14.01,2013-05-10 06:15:00,
2013-05-10 01:20:00,41.4,30.1,30.10,North,0,2.0,8.0,64,0.00,,---,0.00,0.00,VWS V14.01,2013-05-10 06:20:00,
2013-05-10 01:25:00,41.5,30.2,30.10,North,0,2.0,5.0,64,0.00,,---,0.00,0.00,VWS V14.01,2013-05-10 06:25:00,
2013-05-10 01:30:00,41.6,30.3,30.10,NNE,22,3.0,7.0,64,0.00,,---,0.00,0.00,VWS V14.01,2013-05-10 06:30:00,
2013-05-10 01:35:00,41.7,30.4,30.10,North,0,3.0,6.0,64,0.00,,---,0.00,0.00,VWS V14.01,2013-05-10 06:35:00,
2013-05-10 01:40:00,41.8,30.1,30.10,NE,45,3.0,10.0,63,0.00,,---,0.00,0.00,VWS V14.01,2013-05-10 06:40:00,
2013-05-10 01:45:00,41.9,30.2,30.10,NNE,22,4.0,11.0,63,0.00,,---,0.00,0.00,VWS V14.01,2013-05-10 06:45:00,
2013-05-10 01:50:00,41.9,29.9,30.10,North,0,5.0,10.0,62,0.00,,---,0.00,0.00,VWS V14.01,2013-05-10 06:50:00,
2013-05-10 01:55:00,41.9,30.2,30.10,NNW,338,3.0,12.0,63,0.00,,---,0.00,0.00,VWS V14.01,2013-05-10 06:55:00,
2013-05-10 02:00:00,41.8,30.1,30.10,NNE,22,4.0,11.0,63,0.00,,---,0.00,0.00,VWS V14.01,2013-05-10 07:00:00,
2013-05-10 02:05:00,41.6,30.3,30.10,NNE,22,4.0,11.0,64,0.00,,---,0.00,0.00,VWS V14.01,2013-05-10 07:05:00,
2013-05-10 02:10:00,41.5,30.2,30.10,NNE,22,5.0,14.0,64,0.00,,---,0.00,0.00,VWS V14.01,2013-05-10 07:10:00,
2013-05-10 02:15:00,41.3,30.1,30.09,NE,45,4.0,13.0,64,0.00,,---,0.00,0.00,VWS V14.01,2013-05-10 07:15:00,
2013-05-10 02:20:00,41.1,29.9,30.09,North,0,4.0,12.0,64,0.00,,---,0.00,0.00,VWS V14.01,2013-05-10 07:20:00,
2013-05-10 02:25:00,40.9,30.1,30.09,NNE,22,4.0,10.0,65,0.00,,---,0.00,0.00,VWS V14.01,2013-05-10 07:25:00,
2013-05-10 02:30:00,40.6,30.1,30.09,NNW,338,3.0,7.0,66,0.00,,---,0.00,0.00,VWS V14.01,2013-05-10 07:30:00,
2013-05-10 02:35:00,40.4,30.0,30.09,NNE,22,3.0,7.0,66,0.00,,---,0.00,0.00,VWS V14.01,2013-05-10 07:35:00,
2013-05-10 02:40:00,40.2,29.8,30.09,NNE,22,3.0,10.0,66,0.00,,---,0.00,0.00,VWS V14.01,2013-05-10 07:40:00,
2013-05-10 02:45:00,40.0,29.9,30.09,North,0,4.0,11.0,67,0.00,,---,0.00,0.00,VWS V14.01,2013-05-10 07:45:00,
2013-05-10 02:50:00,39.8,29.8,30.09,North,0,4.0,10.0,67,0.00,,---,0.00,0.00,VWS V14.01,2013-05-10 07:50:00,
2013-05-10 02:55:00,39.7,30.0,30.09,NNW,338,2.0,9.0,68,0.00,,---,0.00,0.00,VWS V14.01,2013-05-10 07:55:00,
2013-05-10 03:00:00,39.4,29.7,30.09,North,0,2.0,6.0,68,0.00,,---,0.00,0.00,VWS V14.01,2013-05-10 08:00:00,
2013-05-10 03:05:00,39.2,29.9,30.09,North,0,2.0,5.0,69,0.00,,---,0.00,0.00,VWS V14.01,2013-05-10 08:05:00,
2013-05-10 03:10:00,38.9,29.6,30.10,North,0,2.0,6.0,69,0.00,,---,0.00,0.00,VWS V14.01,2013-05-10 08:10:00,
2013-05-10 03:15:00,38.7,29.4,30.10,North,0,3.0,8.0,69,0.00,,---,0.00,0.00,VWS V14.01,2013-05-10 08:15:00,
2013-05-10 03:20:00,38.6,29.3,30.09,North,0,3.0,11.0,69,0.00,,---,0.00,0.00,VWS V14.01,2013-05-10 08:20:00,
2013-05-10 03:25:00,38.5,29.2,30.10,NE,45,2.0,6.0,69,0.00,,---,0.00,0.00,VWS V14.01,2013-05-10 08:25:00,
2013-05-10 03:30:00,38.4,29.5,30.09,North,0,2.0,6.0,70,0.00,,---,0.00,0.00,VWS V14.01,2013-05-10 08:30:00,
2013-05-10 03:35:00,38.2,29.3,30.10,North,0,2.0,6.0,70,0.00,,---,0.00,0.00,VWS V14.01,2013-05-10 08:35:00,
2013-05-10 03:40:00,38.1,29.2,30.09,NNE,22,2.0,5.0,70,0.00,,---,0.00,0.00,VWS V14.01,2013-05-10 08:40:00,
2013-05-10 03:45:00,37.9,29.0,30.09,North,0,3.0,10.0,70,0.00,,---,0.00,0.00,VWS V14.01,2013-05-10 08:45:00,
2013-05-10 03:50:00,37.9,29.0,30.10,North,0,3.0,6.0,70,0.00,,---,0.00,0.00,VWS V14.01,2013-05-10 08:50:00,
2013-05-10 03:55:00,37.8,29.3,30.10,North,0,2.0,7.0,71,0.00,,---,0.00,0.00,VWS V14.01,2013-05-10 08:55:00,
2013-05-10 04:00:00,37.7,29.2,30.09,North,0,2.0,5.0,71,0.00,,---,0.00,0.00,VWS V14.01,2013-05-10 09:00:00,
2013-05-10 04:05:00,37.5,29.0,30.09,North,0,3.0,8.0,71,0.00,,---,0.00,0.00,VWS V14.01,2013-05-10 09:05:00,
2013-05-10 04:10:00,37.4,28.9,30.09,North,0,2.0,5.0,71,0.00,,---,0.00,0.00,VWS V14.01,2013-05-10 09:10:00,
2013-05-10 04:15:00,37.3,28.8,30.10,North,0,2.0,5.0,71,0.00,,---,0.00,0.00,VWS V14.01,2013-05-10 09:15:00,
2013-05-10 04:20:00,37.2,28.7,30.10,NNW,338,2.0,5.0,71,0.00,,---,0.00,0.00,VWS V14.01,2013-05-10 09:20:00,
2013-05-10 04:25:00,37.1,28.9,30.10,North,0,3.0,9.0,72,0.00,,---,0.00,0.00,VWS V14.01,2013-05-10 09:25:00,
2013-05-10 04:30:00,37.0,28.8,30.10,NNE,22,2.0,6.0,72,0.00,,---,0.00,0.00,VWS V14.01,2013-05-10 09:30:00,
2013-05-10 04:35:00,36.8,28.6,30.10,NNE,22,2.0,5.0,72,0.00,,---,0.00,0.00,VWS V14.01,2013-05-10 09:35:00,
2013-05-10 04:40:00,36.6,28.8,30.10,North,0,2.0,7.0,73,0.00,,---,0.00,0.00,VWS V14.01,2013-05-10 09:40:00,
2013-05-10 04:45:00,36.5,28.7,30.10,NNE,22,2.0,8.0,73,0.00,,---,0.00,0.00,VWS V14.01,2013-05-10 09:45:00,
2013-05-10 04:50:00,36.4,28.6,30.10,NNW,338,2.0,7.0,73,0.00,,---,0.00,0.00,VWS V14.01,2013-05-10 09:50:00,
2013-05-10 04:55:00,36.3,28.8,30.10,NNW,338,2.0,5.0,74,0.00,,---,0.00,0.00,VWS V14.01,2013-05-10 09:55:00,
2013-05-10 05:00:00,36.1,28.6,30.10,NNW,338,2.0,4.0,74,0.00,,---,0.00,0.00,VWS V14.01,2013-05-10 10:00:00,
2013-05-10 05:05:00,35.9,28.8,30.10,North,0,2.0,5.0,75,0.00,,---,0.00,0.00,VWS V14.01,2013-05-10 10:05:00,
2013-05-10 05:10:00,35.7,28.6,30.10,North,0,2.0,4.0,75,0.00,,---,0.00,0.00,VWS V14.01,2013-05-10 10:10:00,
2013-05-10 05:15:00,35.5,28.7,30.10,NNW,338,2.0,5.0,76,0.00,,---,0.00,0.00,VWS V14.01,2013-05-10 10:15:00,
2013-05-10 05:20:00,35.4,28.6,30.10,North,0,2.0,5.0,76,0.00,,---,0.00,0.00,VWS V14.01,2013-05-10 10:20:00,
2013-05-10 05:25:00,35.3,28.5,30.10,NNW,338,2.0,5.0,76,0.00,,---,0.00,0.00,VWS V14.01,2013-05-10 10:25:00,
2013-05-10 05:30:00,35.1,28.3,30.11,NW,315,1.0,3.0,76,0.00,,---,0.00,0.00,VWS V14.01,2013-05-10 10:30:00,
2013-05-10 05:35:00,35.0,28.5,30.10,NNW,338,1.0,4.0,77,0.00,,---,0.00,0.00,VWS V14.01,2013-05-10 10:35:00,
2013-05-10 05:40:00,34.8,28.3,30.11,NNW,338,2.0,4.0,77,0.00,,---,0.00,0.00,VWS V14.01,2013-05-10 10:40:00,
2013-05-10 05:45:00,34.6,28.1,30.11,NNW,338,1.0,3.0,77,0.00,,---,0.00,0.00,VWS V14.01,2013-05-10 10:45:00,
2013-05-10 05:50:00,34.4,28.3,30.11,NNE,22,0.0,4.0,78,0.00,,---,0.00,3.00,VWS V14.01,2013-05-10 10:50:00,
2013-05-10 05:55:00,34.4,28.3,30.11,NNE,22,1.0,3.0,78,0.00,,---,0.00,7.00,VWS V14.01,2013-05-10 10:55:00,
2013-05-10 06:00:00,34.3,28.2,30.11,North,0,2.0,7.0,78,0.00,,---,0.00,11.00,VWS V14.01,2013-05-10 11:00:00,
2013-05-10 06:05:00,34.4,28.3,30.11,NNE,22,1.0,4.0,78,0.00,,---,0.00,13.00,VWS V14.01,2013-05-10 11:05:00,
2013-05-10 06:10:00,34.4,28.3,30.11,North,0,1.0,4.0,78,0.00,,---,0.00,17.00,VWS V14.01,2013-05-10 11:10:00,
2013-05-10 06:15:00,34.3,28.2,30.11,North,0,1.0,5.0,78,0.00,,---,0.00,20.00,VWS V14.01,2013-05-10 11:15:00,
2013-05-10 06:20:00,34.3,28.2,30.11,NE,45,2.0,6.0,78,0.00,,---,0.00,27.00,VWS V14.01,2013-05-10 11:20:00,
2013-05-10 06:25:00,34.4,28.3,30.11,NNW,338,1.0,4.0,78,0.00,,---,0.00,30.00,VWS V14.01,2013-05-10 11:25:00,
2013-05-10 06:30:00,34.4,28.3,30.11,NNE,22,1.0,4.0,78,0.00,,---,0.00,40.00,VWS V14.01,2013-05-10 11:30:00,
2013-05-10 06:35:00,34.4,28.3,30.12,North,0,2.0,4.0,78,0.00,,---,0.00,54.00,VWS V14.01,2013-05-10 11:35:00,
2013-05-10 06:40:00,34.6,28.5,30.11,North,0,1.0,4.0,78,0.00,,---,0.00,88.00,VWS V14.01,2013-05-10 11:40:00,
2013-05-10 06:45:00,34.9,28.4,30.11,North,0,1.0,5.0,77,0.00,,---,0.00,101.00,VWS V14.01,2013-05-10 11:45:00,
2013-05-10 06:50:00,35.3,28.8,30.11,NNW,338,2.0,4.0,77,0.00,,---,0.00,131.00,VWS V14.01,2013-05-10 11:50:00,
2013-05-10 06:55:00,35.7,28.9,30.11,NNW,338,1.0,4.0,76,0.00,,---,0.00,143.00,VWS V14.01,2013-05-10 11:55:00,
2013-05-10 07:00:00,36.2,29.0,30.11,NNW,338,1.0,4.0,75,0.00,,---,0.00,156.00,VWS V14.01,2013-05-10 12:00:00,
2013-05-10 07:05:00,36.7,29.2,30.11,NW,315,2.0,5.0,74,0.00,,---,0.00,172.00,VWS V14.01,2013-05-10 12:05:00,
2013-05-10 07:10:00,37.0,29.2,30.11,NNE,22,2.0,7.0,73,0.00,,---,0.00,187.00,VWS V14.01,2013-05-10 12:10:00,
2013-05-10 07:15:00,37.1,29.3,30.11,NNE,22,3.0,7.0,73,0.00,,---,0.00,203.00,VWS V14.01,2013-05-10 12:15:00,
2013-05-10 07:20:00,37.4,29.2,30.11,North,0,2.0,4.0,72,0.00,,---,0.00,218.00,VWS V14.01,2013-05-10 12:20:00,
2013-05-10 07:25:00,37.9,29.4,30.11,NE,45,3.0,8.0,71,0.00,,---,0.00,236.00,VWS V14.01,2013-05-10 12:25:00,
2013-05-10 07:30:00,38.2,28.9,30.11,North,0,3.0,12.0,69,0.00,,---,0.00,251.00,VWS V14.01,2013-05-10 12:30:00,
2013-05-10 07:35:00,38.5,29.2,30.11,NNW,338,3.0,10.0,69,0.00,,---,0.00,266.00,VWS V14.01,2013-05-10 12:35:00,
2013-05-10 07:40:00,38.7,29.1,30.11,NNE,22,4.0,10.0,68,0.00,,---,0.00,283.00,VWS V14.01,2013-05-10 12:40:00,
2013-05-10 07:45:00,38.7,29.1,30.11,NNE,22,4.0,9.0,68,0.00,,---,0.00,300.00,VWS V14.01,2013-05-10 12:45:00,
2013-05-10 07:50:00,38.9,28.9,30.11,NNE,22,5.0,10.0,67,0.00,,---,0.00,317.00,VWS V14.01,2013-05-10 12:50:00,
2013-05-10 07:55:00,39.0,29.4,30.12,NNE,22,2.0,7.0,68,0.00,,---,0.00,334.00,VWS V14.01,2013-05-10 12:55:00,
2013-05-10 08:00:00,39.4,29.0,30.11,North,0,3.0,7.0,66,0.00,,---,0.00,350.00,VWS V14.01,2013-05-10 13:00:00,
2013-05-10 08:05:00,39.9,29.1,30.11,NNE,22,3.0,6.0,65,0.00,,---,0.00,366.00,VWS V14.01,2013-05-10 13:05:00,
2013-05-10 08:10:00,40.0,28.8,30.11,North,0,4.0,10.0,64,0.00,,---,0.00,381.00,VWS V14.01,2013-05-10 13:10:00,
2013-05-10 08:15:00,40.3,29.5,30.11,North,0,2.0,8.0,65,0.00,,---,0.00,398.00,VWS V14.01,2013-05-10 13:15:00,
2013-05-10 08:20:00,41.0,29.4,30.11,NNE,22,3.0,9.0,63,0.00,,---,0.00,416.00,VWS V14.01,2013-05-10 13:20:00,
2013-05-10 08:25:00,41.4,29.4,30.11,NNE,22,3.0,7.0,62,0.00,,---,0.00,432.00,VWS V14.01,2013-05-10 13:25:00,
2013-05-10 08:30:00,41.4,29.8,30.11,NNE,22,2.0,6.0,63,0.00,,---,0.00,449.00,VWS V14.01,2013-05-10 13:30:00,
2013-05-10 08:35:00,41.9,29.5,30.11,NNW,338,3.0,6.0,61,0.00,,---,0.00,467.00,VWS V14.01,2013-05-10 13:35:00,
2013-05-10 08:40:00,42.2,28.9,30.11,NNE,22,4.0,9.0,59,0.00,,---,0.00,483.00,VWS V14.01,2013-05-10 13:40:00,
2013-05-10 08:45:00,42.2,29.3,30.10,ENE,68,2.0,6.0,60,0.00,,---,0.00,496.00,VWS V14.01,2013-05-10 13:45:00,
2013-05-10 08:50:00,42.7,29.8,30.10,NNW,338,3.0,5.0,60,0.00,,---,0.00,513.00,VWS V14.01,2013-05-10 13:50:00,
2013-05-10 08:55:00,43.1,28.9,30.10,NE,45,3.0,9.0,57,0.00,,---,0.00,529.00,VWS V14.01,2013-05-10 13:55:00,
2013-05-10 09:00:00,43.0,28.8,30.09,NNE,22,3.0,7.0,57,0.00,,---,0.00,543.00,VWS V14.01,2013-05-10 14:00:00,
2013-05-10 09:05:00,43.2,29.0,30.10,NNW,338,4.0,11.0,57,0.00,,---,0.00,558.00,VWS V14.01,2013-05-10 14:05:00,
2013-05-10 09:10:00,43.2,29.4,30.10,NE,45,3.0,9.0,58,0.00,,---,0.00,573.00,VWS V14.01,2013-05-10 14:10:00,
2013-05-10 09:15:00,43.8,29.1,30.09,NNW,338,2.0,7.0,56,0.00,,---,0.00,588.00,VWS V14.01,2013-05-10 14:15:00,
2013-05-10 09:20:00,44.5,29.4,30.09,NNE,22,3.0,9.0,55,0.00,,---,0.00,603.00,VWS V14.01,2013-05-10 14:20:00,
2013-05-10 09:25:00,44.8,29.2,30.09,NNW,338,3.0,7.0,54,0.00,,---,0.00,617.00,VWS V14.01,2013-05-10 14:25:00,
2013-05-10 09:30:00,44.9,29.3,30.09,North,0,3.0,6.0,54,0.00,,---,0.00,634.00,VWS V14.01,2013-05-10 14:30:00,
2013-05-10 09:35:00,45.1,29.5,30.09,NNW,338,3.0,7.0,54,0.00,,---,0.00,650.00,VWS V14.01,2013-05-10 14:35:00,
2013-05-10 09:40:00,45.3,29.2,30.09,North,0,3.0,6.0,53,0.00,,---,0.00,665.00,VWS V14.01,2013-05-10 14:40:00,
2013-05-10 09:45:00,45.8,30.1,30.09,North,0,3.0,9.0,54,0.00,,---,0.00,677.00,VWS V14.01,2013-05-10 14:45:00,
2013-05-10 09:50:00,46.1,29.0,30.08,NW,315,3.0,11.0,51,0.00,,---,0.00,690.00,VWS V14.01,2013-05-10 14:50:00,
2013-05-10 09:55:00,46.3,28.7,30.09,NNE,22,4.0,9.0,50,0.00,,---,0.00,704.00,VWS V14.01,2013-05-10 14:55:00,
2013-05-10 10:00:00,46.5,29.4,30.08,North,0,2.0,6.0,51,0.00,,---,0.00,718.00,VWS V14.01,2013-05-10 15:00:00,
2013-05-10 10:05:00,47.0,29.3,30.08,NNW,338,3.0,7.0,50,0.00,,---,0.00,728.00,VWS V14.01,2013-05-10 15:05:00,
2013-05-10 10:10:00,47.5,29.3,30.08,North,0,2.0,7.0,49,0.00,,---,0.00,742.00,VWS V14.01,2013-05-10 15:10:00,
2013-05-10 10:15:00,48.0,28.8,30.08,North,0,3.0,7.0,47,0.00,,---,0.00,755.00,VWS V14.01,2013-05-10 15:15:00,
2013-05-10 10:20:00,48.6,29.3,30.08,North,0,3.0,6.0,47,0.00,,---,0.00,766.00,VWS V14.01,2013-05-10 15:20:00,
2013-05-10 10:25:00,48.5,29.7,30.08,NNE,22,3.0,9.0,48,0.00,,---,0.00,776.00,VWS V14.01,2013-05-10 15:25:00,
2013-05-10 10:30:00,48.6,30.3,30.08,NNW,338,2.0,8.0,49,0.00,,---,0.00,791.00,VWS V14.01,2013-05-10 15:30:00,
2013-05-10 10:35:00,49.6,29.1,30.08,NNW,338,3.0,11.0,45,0.00,,---,0.00,801.00,VWS V14.01,2013-05-10 15:35:00,
2013-05-10 10:40:00,49.9,30.0,30.08,NNE,22,3.0,8.0,46,0.00,,---,0.00,812.00,VWS V14.01,2013-05-10 15:40:00,
2013-05-10 10:45:00,49.7,29.8,30.08,North,0,3.0,7.0,46,0.00,,---,0.00,822.00,VWS V14.01,2013-05-10 15:45:00,
2013-05-10 10:50:00,49.7,30.3,30.08,NNW,338,3.0,7.0,47,0.00,,---,0.00,831.00,VWS V14.01,2013-05-10 15:50:00,
2013-05-10 10:55:00,50.2,30.2,30.08,NNW,338,3.0,5.0,46,0.00,,---,0.00,841.00,VWS V14.01,2013-05-10 15:55:00,
2013-05-10 11:00:00,50.6,30.6,30.08,NW,315,2.0,5.0,46,0.00,,---,0.00,849.00,VWS V14.01,2013-05-10 16:00:00,
2013-05-10 11:05:00,51.3,30.1,30.08,North,0,3.0,9.0,44,0.00,,---,0.00,859.00,VWS V14.01,2013-05-10 16:05:00,
2013-05-10 11:10:00,51.2,30.0,30.07,North,0,1.0,5.0,44,0.00,,---,0.00,868.00,VWS V14.01,2013-05-10 16:10:00,
2013-05-10 11:15:00,51.6,30.4,30.07,NNW,338,2.0,5.0,44,0.00,,---,0.00,877.00,VWS V14.01,2013-05-10 16:15:00,
2013-05-10 11:20:00,52.4,31.1,30.07,NNE,22,2.0,7.0,44,0.00,,---,0.00,888.00,VWS V14.01,2013-05-10 16:20:00,
2013-05-10 11:25:00,52.8,30.4,30.07,North,0,3.0,7.0,42,0.00,,---,0.00,895.00,VWS V14.01,2013-05-10 16:25:00,
2013-05-10 11:30:00,52.5,30.1,30.07,NW,315,3.0,7.0,42,0.00,,---,0.00,899.00,VWS V14.01,2013-05-10 16:30:00,
2013-05-10 11:35:00,52.9,29.9,30.07,NW,315,2.0,7.0,41,0.00,,---,0.00,906.00,VWS V14.01,2013-05-10 16:35:00,
2013-05-10 11:40:00,53.9,28.9,30.06,NNE,22,3.0,6.0,38,0.00,,---,0.00,914.00,VWS V14.01,2013-05-10 16:40:00,
2013-05-10 11:45:00,54.1,28.4,30.07,North,0,2.0,7.0,37,0.00,,---,0.00,920.00,VWS V14.01,2013-05-10 16:45:00,
2013-05-10 11:50:00,53.9,27.6,30.07,North,0,2.0,6.0,36,0.00,,---,0.00,925.00,VWS V14.01,2013-05-10 16:50:00,
2013-05-10 11:55:00,53.5,29.2,30.06,SSE,158,2.0,6.0,39,0.00,,---,0.00,932.00,VWS V14.01,2013-05-10 16:55:00,
2013-05-10 12:00:00,54.3,29.9,30.06,NW,315,2.0,6.0,39,0.00,,---,0.00,937.00,VWS V14.01,2013-05-10 17:00:00,
2013-05-10 12:05:00,54.9,31.0,30.06,North,0,3.0,8.0,40,0.00,,---,0.00,941.00,VWS V14.01,2013-05-10 17:05:00,
2013-05-10 12:10:00,54.7,30.9,30.06,North,0,3.0,9.0,40,0.00,,---,0.00,943.00,VWS V14.01,2013-05-10 17:10:00,
2013-05-10 12:15:00,55.1,31.8,30.06,North,0,1.0,4.0,41,0.00,,---,0.00,946.00,VWS V14.01,2013-05-10 17:15:00,
2013-05-10 12:20:00,56.3,31.0,30.05,NW,315,2.0,5.0,38,0.00,,---,0.00,950.00,VWS V14.01,2013-05-10 17:20:00,
2013-05-10 12:25:00,57.4,31.4,30.05,NW,315,3.0,7.0,37,0.00,,---,0.00,956.00,VWS V14.01,2013-05-10 17:25:00,
2013-05-10 12:30:00,58.1,31.3,30.05,NW,315,1.0,5.0,36,0.00,,---,0.00,961.00,VWS V14.01,2013-05-10 17:30:00,
2013-05-10 12:35:00,58.8,31.9,30.04,NNW,338,2.0,7.0,36,0.00,,---,0.00,965.00,VWS V14.01,2013-05-10 17:35:00,
2013-05-10 12:40:00,59.2,31.6,30.04,NW,315,1.0,6.0,35,0.00,,---,0.00,965.00,VWS V14.01,2013-05-10 17:40:00,
2013-05-10 12:45:00,59.9,30.8,30.04,NNW,338,2.0,6.0,33,0.00,,---,0.00,967.00,VWS V14.01,2013-05-10 17:45:00,
2013-05-10 12:50:00,59.5,32.5,30.03,NNW,338,1.0,6.0,36,0.00,,---,0.00,973.00,VWS V14.01,2013-05-10 17:50:00,
2013-05-10 12:55:00,59.6,31.2,30.03,NW,315,3.0,7.0,34,0.00,,---,0.00,973.00,VWS V14.01,2013-05-10 17:55:00,
2013-05-10 13:00:00,59.6,31.9,30.03,NW,315,2.0,6.0,35,0.00,,---,0.00,971.00,VWS V14.01,2013-05-10 18:00:00,
2013-05-10 13:05:00,59.4,31.0,30.03,NW,315,2.0,7.0,34,0.00,,---,0.00,971.00,VWS V14.01,2013-05-10 18:05:00,
2013-05-10 13:10:00,59.1,31.5,30.02,SW,225,1.0,5.0,35,0.00,,---,0.00,971.00,VWS V14.01,2013-05-10 18:10:00,
2013-05-10 13:15:00,59.8,29.9,30.02,NNE,22,2.0,7.0,32,0.00,,---,0.00,973.00,VWS V14.01,2013-05-10 18:15:00,
2013-05-10 13:20:00,59.9,29.2,30.02,NNE,22,3.0,7.0,31,0.00,,---,0.00,973.00,VWS V14.01,2013-05-10 18:20:00,
2013-05-10 13:25:00,59.1,29.3,30.02,North,0,2.0,6.0,32,0.00,,---,0.00,970.00,VWS V14.01,2013-05-10 18:25:00,
2013-05-10 13:30:00,59.9,29.2,30.02,NE,45,1.0,5.0,31,0.00,,---,0.00,970.00,VWS V14.01,2013-05-10 18:30:00,
2013-05-10 13:35:00,60.4,30.4,30.02,NNE,22,1.0,4.0,32,0.00,,---,0.00,969.00,VWS V14.01,2013-05-10 18:35:00,
2013-05-10 13:40:00,60.5,30.5,30.01,NE,45,1.0,4.0,32,0.00,,---,0.00,965.00,VWS V14.01,2013-05-10 18:40:00,
2013-05-10 13:45:00,61.0,30.2,30.01,NW,315,0.0,4.0,31,0.00,,---,0.00,965.00,VWS V14.01,2013-05-10 18:45:00,
2013-05-10 13:50:00,61.1,30.3,30.01,ESE,112,1.0,4.0,31,0.00,,---,0.00,965.00,VWS V14.01,2013-05-10 18:50:00,
2013-05-10 13:55:00,61.4,29.7,30.01,North,0,2.0,6.0,30,0.00,,---,0.00,960.00,VWS V14.01,2013-05-10 18:55:00,
2013-05-10 14:00:00,61.6,30.7,30.01,ENE,68,2.0,7.0,31,0.00,,---,0.00,954.00,VWS V14.01,2013-05-10 19:00:00,
2013-05-10 14:05:00,61.1,31.8,30.01,East,90,1.0,4.0,33,0.00,,---,0.00,949.00,VWS V14.01,2013-05-10 19:05:00,
2013-05-10 14:10:00,61.6,32.2,30.01,NNW,338,1.0,5.0,33,0.00,,---,0.00,945.00,VWS V14.01,2013-05-10 19:10:00,
2013-05-10 14:15:00,63.0,30.3,30.01,NNW,338,1.0,4.0,29,0.00,,---,0.00,940.00,VWS V14.01,2013-05-10 19:15:00,
2013-05-10 14:20:00,63.2,29.6,30.00,NNW,338,2.0,6.0,28,0.00,,---,0.00,935.00,VWS V14.01,2013-05-10 19:20:00,
2013-05-10 14:25:00,62.6,29.9,30.00,NNW,338,1.0,5.0,29,0.00,,---,0.00,930.00,VWS V14.01,2013-05-10 19:25:00,
2013-05-10 14:30:00,63.8,31.0,30.00,WSW,248,1.0,4.0,29,0.00,,---,0.00,926.00,VWS V14.01,2013-05-10 19:30:00,
2013-05-10 14:35:00,64.5,29.8,30.00,NW,315,3.0,7.0,27,0.00,,---,0.00,919.00,VWS V14.01,2013-05-10 19:35:00,
2013-05-10 14:40:00,64.1,32.1,30.00,WNW,292,1.0,5.0,30,0.00,,---,0.00,912.00,VWS V14.01,2013-05-10 19:40:00,
2013-05-10 14:45:00,64.9,31.0,29.99,WNW,292,1.0,5.0,28,0.00,,---,0.00,906.00,VWS V14.01,2013-05-10 19:45:00,
2013-05-10 14:50:00,64.9,30.1,29.99,NW,315,1.0,5.0,27,0.00,,---,0.00,898.00,VWS V14.01,2013-05-10 19:50:00,
2013-05-10 14:55:00,64.0,30.3,29.99,NNE,22,0.0,3.0,28,0.00,,---,0.00,890.00,VWS V14.01,2013-05-10 19:55:00,
2013-05-10 15:00:00,64.1,30.4,29.99,North,0,2.0,5.0,28,0.00,,---,0.00,884.00,VWS V14.01,2013-05-10 20:00:00,
2013-05-10 15:05:00,64.6,29.0,29.98,NNW,338,1.0,6.0,26,0.00,,---,0.00,874.00,VWS V14.01,2013-05-10 20:05:00,
2013-05-10 15:10:00,65.0,29.3,29.98,NE,45,0.0,4.0,26,0.00,,---,0.00,864.00,VWS V14.01,2013-05-10 20:10:00,
2013-05-10 15:15:00,65.1,31.2,29.98,NNW,338,1.0,7.0,28,0.00,,---,0.00,858.00,VWS V14.01,2013-05-10 20:15:00,
2013-05-10 15:20:00,65.5,28.8,29.98,SW,225,2.0,7.0,25,0.00,,---,0.00,850.00,VWS V14.01,2013-05-10 20:20:00,
2013-05-10 15:25:00,65.2,29.5,29.98,SW,225,4.0,11.0,26,0.00,,---,0.00,839.00,VWS V14.01,2013-05-10 20:25:00,
2013-05-10 15:30:00,63.7,28.2,29.97,SW,225,3.0,10.0,26,0.00,,---,0.00,827.00,VWS V14.01,2013-05-10 20:30:00,
2013-05-10 15:35:00,63.2,27.8,29.97,SW,225,1.0,5.0,26,0.00,,---,0.00,816.00,VWS V14.01,2013-05-10 20:35:00,
2013-05-10 15:40:00,63.4,29.8,29.97,SW,225,3.0,9.0,28,0.00,,---,0.00,806.00,VWS V14.01,2013-05-10 20:40:00,
2013-05-10 15:45:00,64.1,28.5,29.97,WSW,248,1.0,8.0,26,0.00,,---,0.00,795.00,VWS V14.01,2013-05-10 20:45:00,
2013-05-10 15:50:00,64.3,30.5,29.96,WSW,248,1.0,4.0,28,0.00,,---,0.00,782.00,VWS V14.01,2013-05-10 20:50:00,
2013-05-10 15:55:00,64.8,31.0,29.96,SW,225,0.0,3.0,28,0.00,,---,0.00,770.00,VWS V14.01,2013-05-10 20:55:00,
2013-05-10 16:00:00,66.0,29.2,29.95,WSW,248,0.0,2.0,25,0.00,,---,0.00,759.00,VWS V14.01,2013-05-10 21:00:00,
2013-05-10 16:05:00,66.3,31.4,29.95,SW,225,0.0,3.0,27,0.00,,---,0.00,745.00,VWS V14.01,2013-05-10 21:05:00,
2013-05-10 16:10:00,66.2,30.3,29.95,East,90,0.0,3.0,26,0.00,,---,0.00,734.00,VWS V14.01,2013-05-10 21:10:00,
2013-05-10 16:15:00,66.8,29.9,29.95,SW,225,3.0,11.0,25,0.00,,---,0.00,723.00,VWS V14.01,2013-05-10 21:15:00,
2013-05-10 16:20:00,65.4,29.6,29.95,SW,225,3.0,9.0,26,0.00,,---,0.00,707.00,VWS V14.01,2013-05-10 21:20:00,
2013-05-10 16:25:00,64.7,29.0,29.94,SW,225,1.0,7.0,26,0.00,,---,0.00,693.00,VWS V14.01,2013-05-10 21:25:00,
2013-05-10 16:30:00,64.7,29.0,29.94,ENE,68,0.0,2.0,26,0.00,,---,0.00,678.00,VWS V14.01,2013-05-10 21:30:00,
2013-05-10 16:35:00,65.2,31.3,29.94,NW,315,0.0,3.0,28,0.00,,---,0.00,664.00,VWS V14.01,2013-05-10 21:35:00,
2013-05-10 16:40:00,66.4,29.5,29.93,WSW,248,3.0,7.0,25,0.00,,---,0.00,656.00,VWS V14.01,2013-05-10 21:40:00,
2013-05-10 16:45:00,67.1,30.1,29.93,NW,315,1.0,6.0,25,0.00,,---,0.00,643.00,VWS V14.01,2013-05-10 21:45:00,
2013-05-10 16:50:00,66.8,27.8,29.93,SW,225,7.0,14.0,23,0.00,,---,0.00,628.00,VWS V14.01,2013-05-10 21:50:00,
2013-05-10 16:55:00,65.8,27.0,29.93,SW,225,5.0,11.0,23,0.00,,---,0.00,617.00,VWS V14.01,2013-05-10 21:55:00,
2013-05-10 17:00:00,66.1,28.3,29.93,WNW,292,2.0,6.0,24,0.00,,---,0.00,605.00,VWS V14.01,2013-05-10 22:00:00,
2013-05-10 17:05:00,67.2,28.2,29.93,West,270,1.0,11.0,23,0.00,,---,0.00,553.00,VWS V14.01,2013-05-10 22:05:00,
2013-05-10 17:10:00,67.6,27.4,29.93,SW,225,4.0,10.0,22,0.00,,---,0.00,525.00,VWS V14.01,2013-05-10 22:10:00,
2013-05-10 17:15:00,66.6,27.7,29.93,SW,225,4.0,11.0,23,0.00,,---,0.00,541.00,VWS V14.01,2013-05-10 22:15:00,
2013-05-10 17:20:00,66.0,28.2,29.93,SW,225,4.0,11.0,24,0.00,,---,0.00,533.00,VWS V14.01,2013-05-10 22:20:00,
2013-05-10 17:25:00,66.0,29.2,29.92,WSW,248,2.0,12.0,25,0.00,,---,0.00,490.00,VWS V14.01,2013-05-10 22:25:00,
2013-05-10 17:30:00,66.8,28.9,29.92,WSW,248,3.0,12.0,24,0.00,,---,0.00,468.00,VWS V14.01,2013-05-10 22:30:00,
2013-05-10 17:35:00,66.4,28.5,29.91,SW,225,5.0,12.0,24,0.00,,---,0.00,408.00,VWS V14.01,2013-05-10 22:35:00,
2013-05-10 17:40:00,65.7,29.9,29.91,WSW,248,4.0,12.0,26,0.00,,---,0.00,376.00,VWS V14.01,2013-05-10 22:40:00,
2013-05-10 17:45:00,65.5,28.8,29.91,WSW,248,4.0,13.0,25,0.00,,---,0.00,359.00,VWS V14.01,2013-05-10 22:45:00,
2013-05-10 17:50:00,65.6,28.9,29.91,SW,225,6.0,13.0,25,0.00,,---,0.00,359.00,VWS V14.01,2013-05-10 22:50:00,
2013-05-10 17:55:00,65.6,27.9,29.91,WSW,248,3.0,11.0,24,0.00,,---,0.00,399.00,VWS V14.01,2013-05-10 22:55:00,
2013-05-10 18:00:00,65.8,30.0,29.91,SW,225,5.0,12.0,26,0.00,,---,0.00,406.00,VWS V14.01,2013-05-10 23:00:00,
2013-05-10 18:05:00,66.0,27.2,29.91,SW,225,5.0,12.0,23,0.00,,---,0.00,325.00,VWS V14.01,2013-05-10 23:05:00,
2013-05-10 18:10:00,65.5,27.8,29.91,SW,225,3.0,10.0,24,0.00,,---,0.00,297.00,VWS V14.01,2013-05-10 23:10:00,
2013-05-10 18:15:00,65.8,29.0,29.91,WSW,248,1.0,5.0,25,0.00,,---,0.00,271.00,VWS V14.01,2013-05-10 23:15:00,
2013-05-10 18:20:00,66.2,28.4,29.91,WSW,248,1.0,7.0,24,0.00,,---,0.00,195.00,VWS V14.01,2013-05-10 23:20:00,
2013-05-10 18:25:00,66.4,29.5,29.90,WSW,248,1.0,6.0,25,0.00,,---,0.00,199.00,VWS V14.01,2013-05-10 23:25:00,
2013-05-10 18:30:00,66.5,28.6,29.90,NW,315,2.0,10.0,24,0.00,,---,0.00,239.00,VWS V14.01,2013-05-10 23:30:00,
2013-05-10 18:35:00,66.5,29.6,29.90,WSW,248,1.0,7.0,25,0.00,,---,0.00,224.00,VWS V14.01,2013-05-10 23:35:00,
2013-05-10 18:40:00,66.6,28.7,29.90,West,270,2.0,6.0,24,0.00,,---,0.00,208.00,VWS V14.01,2013-05-10 23:40:00,
2013-05-10 18:45:00,66.4,27.5,29.90,SW,225,4.0,13.0,23,0.00,,---,0.00,156.00,VWS V14.01,2013-05-10 23:45:00,
2013-05-10 18:50:00,65.7,29.0,29.89,WSW,248,1.0,11.0,25,0.00,,---,0.00,120.00,VWS V14.01,2013-05-10 23:50:00,
2013-05-10 18:55:00,65.4,27.7,29.89,WSW,248,1.0,7.0,24,0.00,,---,0.00,105.00,VWS V14.01,2013-05-10 23:55:00,
2013-05-10 19:00:00,65.1,29.4,29.89,WSW,248,2.0,6.0,26,0.00,,---,0.00,95.00,VWS V14.01,2013-05-11 00:00:00,
2013-05-10 19:05:00,64.8,28.2,29.89,WSW,248,0.0,3.0,25,0.00,,---,0.00,95.00,VWS V14.01,2013-05-11 00:05:00,
2013-05-10 19:10:00,64.9,28.3,29.89,WSW,248,1.0,5.0,25,0.00,,---,0.00,87.00,VWS V14.01,2013-05-11 00:10:00,
2013-05-10 19:15:00,64.8,29.1,29.89,SW,225,1.0,4.0,26,0.00,,---,0.00,81.00,VWS V14.01,2013-05-11 00:15:00,
2013-05-10 19:20:00,64.6,28.0,29.89,SW,225,3.0,7.0,25,0.00,,---,0.00,69.00,VWS V14.01,2013-05-11 00:20:00,
2013-05-10 19:25:00,64.3,28.7,29.88,SW,225,1.0,5.0,26,0.00,,---,0.00,68.00,VWS V14.01,2013-05-11 00:25:00,
2013-05-10 19:30:00,64.2,29.5,29.88,WSW,248,1.0,5.0,27,0.00,,---,0.00,71.00,VWS V14.01,2013-05-11 00:30:00,
2013-05-10 19:35:00,64.1,29.5,29.88,WSW,248,1.0,10.0,27,0.00,,---,0.00,67.00,VWS V14.01,2013-05-11 00:35:00,
2013-05-10 19:40:00,63.9,29.3,29.88,WSW,248,1.0,4.0,27,0.00,,---,0.00,55.00,VWS V14.01,2013-05-11 00:40:00,
2013-05-10 19:45:00,63.7,29.1,29.88,WSW,248,1.0,4.0,27,0.00,,---,0.00,43.00,VWS V14.01,2013-05-11 00:45:00,
2013-05-10 19:50:00,63.4,29.8,29.88,WSW,248,1.0,2.0,28,0.00,,---,0.00,33.00,VWS V14.01,2013-05-11 00:50:00,
2013-05-10 19:55:00,63.2,29.6,29.88,WSW,248,0.0,3.0,28,0.00,,---,0.00,26.00,VWS V14.01,2013-05-11 00:55:00,
2013-05-10 20:00:00,63.0,29.4,29.88,WSW,248,1.0,3.0,28,0.00,,---,0.00,22.00,VWS V14.01,2013-05-11 01:00:00,
2013-05-10 20:05:00,62.8,29.2,29.87,WSW,248,0.0,2.0,28,0.00,,---,0.00,21.00,VWS V14.01,2013-05-11 01:05:00,
2013-05-10 20:10:00,62.6,29.1,29.87,WSW,248,0.0,0.0,28,0.00,,---,0.00,20.00,VWS V14.01,2013-05-11 01:10:00,
2013-05-10 20:15:00,62.4,29.8,29.87,WSW,248,0.0,0.0,29,0.00,,---,0.00,14.00,VWS V14.01,2013-05-11 01:15:00,
2013-05-10 20:20:00,62.2,30.4,29.87,WSW,248,0.0,1.0,30,0.00,,---,0.00,8.00,VWS V14.01,2013-05-11 01:20:00,
2013-05-10 20:25:00,61.9,30.1,29.86,WSW,248,0.0,1.0,30,0.00,,---,0.00,5.00,VWS V14.01,2013-05-11 01:25:00,
2013-05-10 20:30:00,61.8,30.1,29.86,WSW,248,0.0,2.0,30,0.00,,---,0.00,2.00,VWS V14.01,2013-05-11 01:30:00,
2013-05-10 20:35:00,61.5,29.8,29.86,WSW,248,0.0,0.0,30,0.00,,---,0.00,0.00,VWS V14.01,2013-05-11 01:35:00,
2013-05-10 20:40:00,61.3,30.4,29.86,WSW,248,0.0,0.0,31,0.00,,---,0.00,0.00,VWS V14.01,2013-05-11 01:40:00,
2013-05-10 20:45:00,60.9,30.1,29.85,WSW,248,0.0,0.0,31,0.00,,---,0.00,0.00,VWS V14.01,2013-05-11 01:45:00,
2013-05-10 20:50:00,60.6,31.4,29.86,WSW,248,0.0,0.0,33,0.00,,---,0.00,0.00,VWS V14.01,2013-05-11 01:50:00,
2013-05-10 20:55:00,60.3,31.1,29.87,WSW,248,0.0,0.0,33,0.00,,---,0.00,0.00,VWS V14.01,2013-05-11 01:55:00,
2013-05-10 21:00:00,59.9,31.5,29.87,WSW,248,0.0,0.0,34,0.00,,---,0.00,0.00,VWS V14.01,2013-05-11 02:00:00,
2013-05-10 21:05:00,59.5,31.1,29.86,WSW,248,0.0,0.0,34,0.00,,---,0.00,0.00,VWS V14.01,2013-05-11 02:05:00,
2013-05-10 21:10:00,59.1,30.8,29.86,WSW,248,0.0,0.0,34,0.00,,---,0.00,0.00,VWS V14.01,2013-05-11 02:10:00,
2013-05-10 21:15:00,59.0,31.4,29.86,WSW,248,0.0,0.0,35,0.00,,---,0.00,0.00,VWS V14.01,2013-05-11 02:15:00,
2013-05-10 21:20:00,59.0,32.1,29.86,WSW,248,0.0,0.0,36,0.00,,---,0.00,0.00,VWS V14.01,2013-05-11 02:20:00,
2013-05-10 21:25:00,58.9,32.0,29.86,WSW,248,0.0,0.0,36,0.00,,---,0.00,0.00,VWS V14.01,2013-05-11 02:25:00,
2013-05-10 21:30:00,58.6,32.4,29.86,WSW,248,0.0,0.0,37,0.00,,---,0.00,0.00,VWS V14.01,2013-05-11 02:30:00,
2013-05-10 21:35:00,58.3,33.5,29.86,WSW,248,0.0,0.0,39,0.00,,---,0.00,0.00,VWS V14.01,2013-05-11 02:35:00,
2013-05-10 21:40:00,58.0,33.2,29.87,WSW,248,0.0,0.0,39,0.00,,---,0.00,0.00,VWS V14.01,2013-05-11 02:40:00,
2013-05-10 21:45:00,57.8,33.7,29.88,WSW,248,0.0,0.0,40,0.00,,---,0.00,0.00,VWS V14.01,2013-05-11 02:45:00,
2013-05-10 21:50:00,57.6,32.8,29.88,WSW,248,0.0,0.0,39,0.00,,---,0.00,0.00,VWS V14.01,2013-05-11 02:50:00,
2013-05-10 21:55:00,57.5,33.4,29.88,WSW,248,0.0,1.0,40,0.00,,---,0.00,0.00,VWS V14.01,2013-05-11 02:55:00,
2013-05-10 22:00:00,57.6,34.7,29.88,WSW,248,0.0,0.0,42,0.00,,---,0.00,0.00,VWS V14.01,2013-05-11 03:00:00,
2013-05-10 22:05:00,57.7,34.2,29.87,WSW,248,0.0,1.0,41,0.00,,---,0.00,0.00,VWS V14.01,2013-05-11 03:05:00,
2013-05-10 22:10:00,57.9,36.1,29.86,WSW,248,0.0,1.0,44,0.00,,---,0.00,0.00,VWS V14.01,2013-05-11 03:10:00,
2013-05-10 22:15:00,57.9,40.4,29.86,SSW,202,0.0,3.0,52,0.00,,---,0.00,0.00,VWS V14.01,2013-05-11 03:15:00,
2013-05-10 22:20:00,57.3,40.3,29.86,SSW,202,1.0,3.0,53,0.00,,---,0.00,0.00,VWS V14.01,2013-05-11 03:20:00,
2013-05-10 22:25:00,56.7,41.2,29.85,SSW,202,0.0,0.0,56,0.00,,---,0.00,0.00,VWS V14.01,2013-05-11 03:25:00,
2013-05-10 22:30:00,56.0,40.1,29.85,SSW,202,0.0,1.0,55,0.00,,---,0.00,0.00,VWS V14.01,2013-05-11 03:30:00,
2013-05-10 22:35:00,55.7,40.7,29.85,SSW,202,0.0,0.0,57,0.00,,---,0.00,0.00,VWS V14.01,2013-05-11 03:35:00,
2013-05-10 22:40:00,55.7,41.6,29.85,SSW,202,0.0,0.0,59,0.00,,---,0.00,0.00,VWS V14.01,2013-05-11 03:40:00,
2013-05-10 22:45:00,55.6,42.0,29.85,SSW,202,0.0,0.0,60,0.00,,---,0.00,0.00,VWS V14.01,2013-05-11 03:45:00,
2013-05-10 22:50:00,55.4,40.9,29.84,SSW,202,0.0,0.0,58,0.00,,---,0.00,0.00,VWS V14.01,2013-05-11 03:50:00,
2013-05-10 22:55:00,55.4,40.9,29.84,SSW,202,0.0,0.0,58,0.00,,---,0.00,0.00,VWS V14.01,2013-05-11 03:55:00,
2013-05-10 23:00:00,55.4,40.9,29.84,SSW,202,0.0,0.0,58,0.00,,---,0.00,0.00,VWS V14.01,2013-05-11 04:00:00,
2013-05-10 23:05:00,55.5,40.1,29.83,SSW,202,0.0,0.0,56,0.00,,---,0.00,0.00,VWS V14.01,2013-05-11 04:05:00,
2013-05-10 23:10:00,55.8,39.4,29.83,SSW,202,0.0,2.0,54,0.00,,---,0.00,0.00,VWS V14.01,2013-05-11 04:10:00,
2013-05-10 23:15:00,56.1,42.0,29.84,SSW,202,0.0,2.0,59,0.00,,---,0.00,0.00,VWS V14.01,2013-05-11 04:15:00,
2013-05-10 23:20:00,56.2,40.7,29.83,SSW,202,0.0,3.0,56,0.00,,---,0.00,0.00,VWS V14.01,2013-05-11 04:20:00,
2013-05-10 23:25:00,56.3,40.4,29.83,SSW,202,2.0,5.0,55,0.00,,---,0.00,0.00,VWS V14.01,2013-05-11 04:25:00,
2013-05-10 23:30:00,56.3,40.8,29.83,South,180,1.0,3.0,56,0.01,,---,0.01,0.00,VWS V14.01,2013-05-11 04:30:00,
2013-05-10 23:35:00,55.8,40.8,29.83,South,180,3.0,4.0,57,0.01,,---,0.01,0.00,VWS V14.01,2013-05-11 04:35:00,
2013-05-10 23:40:00,55.5,40.1,29.83,SSW,202,2.0,4.0,56,0.01,,---,0.01,0.00,VWS V14.01,2013-05-11 04:40:00,
2013-05-10 23:45:00,55.4,39.5,29.82,SSW,202,1.0,4.0,55,0.01,,---,0.01,0.00,VWS V14.01,2013-05-11 04:45:00,
2013-05-10 23:50:00,55.5,40.5,29.82,SSW,202,3.0,5.0,57,0.01,,---,0.01,0.00,VWS V14.01,2013-05-11 04:50:00,
2013-05-10 23:55:00,55.4,40.0,29.82,SSW,202,1.0,4.0,56,0.01,,---,0.01,0.00,VWS V14.01,2013-05-11 04:55:00,